| time (UTC) | temp C | wind direction | speed KPH | gust KPH | rain 1hr cm | rain 24hr cm | rain mn cm | humidity % | barometer mb |
| 20260905103507 | 18 | 286 | 6.4 | 16.1 | 0.00 | 0.64 | 0.03 | 72 | 1022.2 |
| 20260905102510 | 17 | 259 | 4.8 | 19.3 | 0.00 | 0.64 | 0.03 | 74 | 1022.1 |
| 20260905101506 | 17 | 265 | 6.4 | 14.5 | 0.00 | 0.64 | 0.03 | 73 | 1022.3 |
| 20260905095506 | 18 | 250 | 6.4 | 17.7 | 0.00 | 0.64 | 0.03 | 74 | 1022.2 |
| 20260905094505 | 17 | 243 | 12.9 | 29.0 | 0.00 | 0.64 | 0.03 | 73 | 1022.1 |
| 20260905093513 | 17 | 263 | 6.4 | 19.3 | 0.00 | 0.64 | 0.03 | 74 | 1021.9 |
| 20260905092507 | 17 | 292 | 6.4 | 17.7 | 0.00 | 0.64 | 0.03 | 78 | 1021.9 |
| 20260905091508 | 16 | 267 | 6.4 | 14.5 | 0.00 | 0.64 | 0.03 | 81 | 1021.9 |
| 20260905090505 | 16 | 302 | 9.7 | 16.1 | 0.00 | 0.64 | 0.03 | 81 | 1021.9 |
| 20260905085504 | 16 | 271 | 3.2 | 12.9 | 0.00 | 0.64 | 0.03 | 82 | 1021.8 |
| 20260905084509 | 16 | 309 | 6.4 | 17.7 | 0.00 | 0.64 | 0.03 | 80 | 1021.8 |
| 20260905082504 | 16 | 238 | 4.8 | 19.3 | 0.00 | 0.64 | 0.03 | 83 | 1021.5 |
| 20260905081508 | 16 | 262 | 9.7 | 17.7 | 0.00 | 0.64 | 0.03 | 84 | 1021.5 |
| 20260905080503 | 16 | 252 | 6.4 | 12.9 | 0.00 | 0.64 | 0.03 | 86 | 1021.3 |
| 20260905075504 | 16 | 266 | 8.0 | 14.5 | 0.00 | 0.64 | 0.03 | 87 | 1021.2 |
| 20260905074506 | 16 | 263 | 9.7 | 19.3 | 0.00 | 0.64 | 0.03 | 91 | 1021.0 |
| 20260905073505 | 15 | 227 | 1.6 | 8.0 | 0.00 | 0.64 | 0.03 | 93 | 1021.0 |
| 20260905072504 | 14 | 219 | 3.2 | 9.7 | 0.00 | 0.64 | 0.03 | 90 | 1020.8 |
| 20260905070504 | 13 | 252 | 0.0 | 0.0 | 0.00 | 0.64 | 0.03 | 90 | 1020.7 |
| 20260905063505 | 12 | 252 | 0.0 | 0.0 | 0.00 | 0.64 | 0.03 | 91 | 1020.6 |
| 20260905062504 | 11 | 252 | 0.0 | 0.0 | 0.00 | 0.64 | 0.03 | 91 | 1020.5 |
| 20260905061506 | 11 | 252 | 0.0 | 0.0 | 0.00 | 0.64 | 0.03 | 92 | 1020.3 |
| 20260905060508 | 11 | 252 | 0.0 | 0.0 | 0.00 | 0.64 | 0.03 | 92 | 1020.3 |
| 20260905055503 | 11 | 252 | 0.0 | 0.0 | 0.00 | 0.64 | 0.03 | 92 | 1020.3 |
| 20260905054505 | 11 | 252 | 0.0 | 0.0 | 0.00 | 0.64 | 0.03 | 92 | 1020.2 |
| 20260905053507 | 11 | 252 | 0.0 | 0.0 | 0.00 | 0.64 | 0.03 | 93 | 1020.1 |
| 20260905052511 | 11 | 252 | 0.0 | 0.0 | 0.00 | 0.64 | 0.03 | 93 | 1019.8 |
| 20260905051507 | 11 | 252 | 0.0 | 0.0 | 0.00 | 0.64 | 0.03 | 93 | 1019.5 |
| 20260905050504 | 11 | 252 | 0.0 | 0.0 | 0.00 | 0.64 | 0.03 | 93 | 1019.3 |
| 20260905045504 | 11 | 252 | 0.0 | 0.0 | 0.00 | 0.64 | 0.03 | 93 | 1019.1 |
| 20260905044506 | 11 | 252 | 0.0 | 0.0 | 0.03 | 0.64 | 0.03 | 93 | 1019.0 |
| 20260905043503 | 11 | 252 | 0.0 | 0.0 | 0.03 | 0.64 | 0.03 | 93 | 1019.0 |
| 20260905042504 | 11 | 252 | 0.0 | 0.0 | 0.03 | 0.64 | 0.03 | 94 | 1018.7 |
| 20260905041504 | 11 | 252 | 0.0 | 0.0 | 0.03 | 0.64 | 0.03 | 94 | 1018.6 |
| 20260905040510 | 12 | 252 | 0.0 | 0.0 | 0.03 | 0.64 | 0.03 | 94 | 1018.6 |
| 20260905035503 | 12 | 252 | 0.0 | 0.0 | 0.03 | 0.61 | 0.03 | 94 | 1018.6 |
| 20260905034506 | 12 | 252 | 0.0 | 0.0 | 0.00 | 0.61 | 0.00 | 94 | 1018.6 |
| 20260905033506 | 12 | 252 | 0.0 | 0.0 | 0.00 | 0.61 | 0.00 | 94 | 1018.7 |
| 20260905032507 | 12 | 252 | 0.0 | 0.0 | 0.00 | 0.61 | 0.00 | 94 | 1018.5 |
| 20260905030504 | 12 | 252 | 0.0 | 0.0 | 0.00 | 0.61 | 0.00 | 94 | 1018.4 |
| 20260905025506 | 13 | 252 | 0.0 | 0.0 | 0.00 | 0.61 | 0.00 | 94 | 1018.5 |
| 20260905024506 | 13 | 252 | 0.0 | 0.0 | 0.00 | 0.61 | 0.00 | 94 | 1018.2 |
| 20260905023512 | 13 | 252 | 0.0 | 0.0 | 0.00 | 0.61 | 0.00 | 94 | 1018.1 |
| 20260905022505 | 13 | 252 | 0.0 | 0.0 | 0.00 | 0.61 | 0.00 | 94 | 1018.0 |
| 20260905021515 | 13 | 252 | 0.0 | 3.2 | 0.00 | 0.61 | 0.00 | 94 | 1018.0 |
| 20260905020510 | 14 | 252 | 0.0 | 4.8 | 0.00 | 0.61 | 0.00 | 93 | 1018.0 |
| 20260905015514 | 14 | 252 | 0.0 | 3.2 | 0.00 | 0.61 | 0.00 | 93 | 1017.9 |
| 20260905014512 | 14 | 252 | 0.0 | 8.0 | 0.00 | 0.61 | 0.00 | 93 | 1017.8 |
| 20260905013508 | 14 | 253 | 1.6 | 6.4 | 0.00 | 0.61 | 0.00 | 93 | 1017.7 |
| 20260905012507 | 14 | 254 | 3.2 | 4.8 | 0.00 | 0.61 | 0.00 | 93 | 1017.7 |
| 20260905011511 | 15 | 254 | 1.6 | 8.0 | 0.00 | 0.61 | 0.00 | 93 | 1017.5 |
| 20260905003503 | 15 | 254 | 8.0 | 14.5 | 0.00 | 0.61 | 0.00 | 92 | 1017.7 |
| 20260905002505 | 15 | 246 | 4.8 | 12.9 | 0.00 | 0.61 | 0.00 | 93 | 1017.7 |
| 20260905000506 | 15 | 240 | 0.0 | 4.8 | 0.00 | 0.61 | 0.00 | 93 | 1017.7 |
| 20260904234506 | 15 | 257 | 3.2 | 14.5 | 0.00 | 0.61 | 0.00 | 93 | 1017.5 |
| 20260904233508 | 15 | 224 | 1.6 | 4.8 | 0.00 | 0.61 | 0.00 | 94 | 1017.4 |
| 20260904231501 | 15 | 224 | 0.0 | 0.0 | 0.00 | 0.64 | 0.00 | 94 | 1017.3 |
| 20260904230517 | 15 | 224 | 0.0 | 0.0 | 0.00 | 0.64 | 0.00 | 94 | 1017.2 |
| 20260904225502 | 15 | 224 | 0.0 | 3.2 | 0.00 | 0.64 | 0.00 | 94 | 1017.2 |
| 20260904224517 | 15 | 224 | 0.0 | 3.2 | 0.00 | 0.64 | 0.00 | 93 | 1017.3 |
| 20260904223503 | 15 | 225 | 0.0 | 8.0 | 0.00 | 0.64 | 0.00 | 94 | 1017.3 |
| 20260904222506 | 15 | 221 | 1.6 | 6.4 | 0.03 | 0.64 | 0.00 | 93 | 1017.3 |
| 20260904221505 | 15 | 220 | 1.6 | 6.4 | 0.03 | 0.64 | 0.00 | 93 | 1017.5 |
| 20260904215503 | 15 | 220 | 0.0 | 3.2 | 0.03 | 0.61 | 0.64 | 93 | 1016.9 |
| 20260904214508 | 15 | 220 | 0.0 | 0.0 | 0.03 | 0.61 | 0.64 | 93 | 1016.8 |
| 20260904213504 | 15 | 220 | 0.0 | 0.0 | 0.03 | 0.61 | 0.64 | 94 | 1016.8 |
| 20260904212509 | 15 | 220 | 0.0 | 3.2 | 0.00 | 0.61 | 0.61 | 94 | 1016.8 |
| 20260904211518 | 15 | 220 | 0.0 | 3.2 | 0.00 | 0.61 | 0.61 | 94 | 1016.8 |
| 20260904210505 | 15 | 220 | 0.0 | 1.6 | 0.00 | 0.61 | 0.61 | 94 | 1016.6 |
| 20260904205504 | 15 | 220 | 0.0 | 0.0 | 0.00 | 0.61 | 0.61 | 94 | 1016.8 |
| 20260904204516 | 15 | 220 | 0.0 | 1.6 | 0.00 | 0.61 | 0.61 | 93 | 1016.9 |
| 20260904202515 | 15 | 219 | 1.6 | 8.0 | 0.08 | 0.61 | 0.61 | 93 | 1016.7 |
| 20260904201529 | 15 | 252 | 3.2 | 8.0 | 0.10 | 0.61 | 0.61 | 93 | 1016.1 |
| 20260904200502 | 15 | 271 | 3.2 | 9.7 | 0.15 | 0.61 | 0.61 | 93 | 1015.7 |
| 20260904194500 | 15 | 294 | 1.6 | 4.8 | 0.43 | 0.43 | 0.61 | 93 | 1015.8 |
| 20260904193501 | 15 | 296 | 0.0 | 17.7 | 0.48 | 0.43 | 0.56 | 92 | 1015.5 |
| 20260904192515 | 15 | 271 | 6.4 | 14.5 | 0.48 | 0.43 | 0.53 | 93 | 1015.7 |
| 20260904191518 | 15 | 250 | 3.2 | 14.5 | 0.48 | 0.43 | 0.51 | 93 | 1015.3 |
| 20260904190505 | 15 | 237 | 12.9 | 24.1 | 0.43 | 0.43 | 0.46 | 93 | 1015.4 |
| 20260904184459 | 17 | 292 | 9.7 | 19.3 | 0.18 | 0.03 | 0.18 | 93 | 1015.3 |
| 20260904182502 | 18 | 304 | 9.7 | 19.3 | 0.05 | 0.03 | 0.05 | 91 | 1014.8 |
| 20260904181505 | 19 | 285 | 12.9 | 27.4 | 0.03 | 0.03 | 0.05 | 88 | 1014.6 |
| 20260904180501 | 22 | 327 | 11.3 | 30.6 | 0.00 | 0.03 | 0.03 | 80 | 1013.7 |
| 20260904175500 | 23 | 272 | 12.9 | 24.1 | 0.00 | 0.03 | 0.03 | 69 | 1013.0 |
| 20260904174501 | 23 | 299 | 6.4 | 20.9 | 0.00 | 0.03 | 0.03 | 67 | 1012.4 |
| 20260904173500 | 24 | 202 | 9.7 | 22.5 | 0.00 | 0.03 | 0.03 | 66 | 1012.3 |
| 20260904172523 | 24 | 253 | 9.7 | 25.7 | 0.00 | 0.03 | 0.03 | 66 | 1012.5 |
| 20260904171459 | 24 | 277 | 6.4 | 22.5 | 0.00 | 0.03 | 0.03 | 66 | 1012.5 |
| 20260904170457 | 24 | 232 | 4.8 | 12.9 | 0.00 | 0.03 | 0.03 | 66 | 1012.4 |
| 20260904164456 | 25 | 262 | 6.4 | 12.9 | 0.00 | 0.03 | 0.03 | 64 | 1012.0 |
| 20260904163510 | 25 | 259 | 8.0 | 19.3 | 0.00 | 0.03 | 0.03 | 63 | 1012.2 |
| 20260904162459 | 26 | 252 | 16.1 | 29.0 | 0.00 | 0.03 | 0.03 | 63 | 1012.3 |
| 20260904161456 | 26 | 246 | 9.7 | 22.5 | 0.00 | 0.03 | 0.03 | 63 | 1012.3 |
| 20260904160509 | 26 | 264 | 9.7 | 25.7 | 0.00 | 0.03 | 0.03 | 63 | 1012.2 |
| 20260904155450 | 26 | 175 | 9.7 | 20.9 | 0.00 | 0.03 | 0.03 | 64 | 1012.3 |
| 20260904154448 | 26 | 217 | 12.9 | 22.5 | 0.00 | 0.03 | 0.03 | 64 | 1012.4 |
| 20260904153501 | 26 | 243 | 8.0 | 17.7 | 0.00 | 0.03 | 0.03 | 64 | 1012.4 |
| 20260904152456 | 26 | 221 | 3.2 | 22.5 | 0.00 | 0.03 | 0.03 | 65 | 1012.4 |
| 20260904151455 | 26 | 257 | 11.3 | 24.1 | 0.00 | 0.03 | 0.03 | 65 | 1012.6 |
| 20260904150454 | 25 | 303 | 8.0 | 20.9 | 0.00 | 0.03 | 0.03 | 68 | 1012.5 |
| 20260904145451 | 25 | 250 | 6.4 | 19.3 | 0.00 | 0.03 | 0.03 | 68 | 1012.6 |
| 20260904143458 | 25 | 275 | 8.0 | 17.7 | 0.00 | 0.03 | 0.03 | 67 | 1012.6 |
| 20260904142457 | 26 | 222 | 8.0 | 20.9 | 0.00 | 0.03 | 0.03 | 66 | 1012.5 |
| 20260904135456 | 26 | 271 | 9.7 | 27.4 | 0.00 | 0.03 | 0.03 | 64 | 1012.3 |
| 20260904134528 | 26 | 214 | 14.5 | 29.0 | 0.00 | 0.03 | 0.03 | 64 | 1012.3 |
| 20260904133501 | 26 | 286 | 9.7 | 22.5 | 0.00 | 0.03 | 0.03 | 64 | 1012.2 |
| 20260904132453 | 26 | 243 | 8.0 | 20.9 | 0.00 | 0.03 | 0.03 | 64 | 1012.0 |
| 20260904131454 | 26 | 226 | 6.4 | 22.5 | 0.00 | 0.03 | 0.03 | 65 | 1012.2 |
| 20260904130450 | 26 | 217 | 8.0 | 24.1 | 0.00 | 0.03 | 0.03 | 64 | 1012.4 |
| 20260904125450 | 26 | 235 | 11.3 | 25.7 | 0.00 | 0.03 | 0.03 | 64 | 1012.5 |
| 20260904124449 | 26 | 261 | 14.5 | 30.6 | 0.00 | 0.03 | 0.03 | 64 | 1012.4 |
| 20260904123454 | 26 | 195 | 8.0 | 22.5 | 0.00 | 0.03 | 0.03 | 65 | 1012.8 |
| 20260904122449 | 26 | 246 | 6.4 | 27.4 | 0.00 | 0.03 | 0.03 | 64 | 1012.9 |
| 20260904121450 | 26 | 262 | 9.7 | 30.6 | 0.00 | 0.03 | 0.03 | 65 | 1012.9 |
| 20260904120449 | 26 | 253 | 1.6 | 24.1 | 0.00 | 0.03 | 0.03 | 67 | 1012.9 |
| 20260904115449 | 26 | 237 | 9.7 | 17.7 | 0.00 | 0.03 | 0.03 | 66 | 1013.0 |
| 20260904114449 | 26 | 244 | 8.0 | 24.1 | 0.00 | 0.03 | 0.03 | 61 | 1013.1 |
| 20260904113454 | 26 | 241 | 4.8 | 20.9 | 0.00 | 0.03 | 0.03 | 68 | 1013.1 |
| 20260904112448 | 25 | 265 | 9.7 | 20.9 | 0.00 | 0.03 | 0.03 | 69 | 1013.3 |
| 20260904110448 | 25 | 242 | 8.0 | 25.7 | 0.00 | 0.03 | 0.03 | 70 | 1013.6 |
| 20260904105447 | 25 | 224 | 8.0 | 17.7 | 0.00 | 0.03 | 0.03 | 73 | 1013.6 |